createdAt,value
2018-12-27T00:01:09.808Z,23.83
2018-12-27T00:03:37.978Z,25.30
2018-12-27T00:06:05.977Z,30.30
2018-12-27T00:08:34.236Z,25.30
2018-12-27T00:11:02.331Z,29.13
2018-12-27T00:13:30.339Z,28.20
2018-12-27T00:15:58.380Z,24.47
2018-12-27T00:18:26.503Z,24.43
2018-12-27T00:20:54.656Z,24.37
2018-12-27T00:23:22.673Z,27.03
2018-12-27T00:25:51.309Z,25.17
2018-12-27T00:28:19.505Z,26.90
2018-12-27T00:30:47.607Z,23.73
2018-12-27T00:33:15.487Z,22.87
2018-12-27T00:35:43.540Z,25.80
2018-12-27T00:38:11.557Z,23.67
2018-12-27T00:40:39.741Z,24.83
2018-12-27T00:43:07.567Z,24.07
2018-12-27T00:45:35.628Z,23.93
2018-12-27T00:48:04.032Z,24.70
2018-12-27T00:50:32.120Z,25.33
2018-12-27T00:53:00.219Z,26.17
2018-12-27T00:55:28.209Z,26.00
2018-12-27T00:57:56.355Z,26.43
2018-12-27T01:00:24.507Z,26.52
2018-12-27T01:02:53.472Z,27.20
2018-12-27T01:05:21.589Z,23.40
2018-12-27T01:07:49.560Z,28.23
2018-12-27T01:10:17.900Z,24.25
2018-12-27T01:12:45.920Z,26.70
2018-12-27T01:15:14.040Z,23.90
2018-12-27T01:17:42.047Z,24.00
2018-12-27T01:20:10.039Z,23.50
2018-12-27T01:22:38.630Z,25.70
2018-12-27T01:25:06.782Z,23.87
2018-12-27T01:27:34.914Z,24.63
2018-12-27T01:30:03.286Z,23.03
2018-12-27T01:32:31.594Z,22.13
2018-12-27T01:34:59.723Z,25.33
2018-12-27T01:37:27.845Z,26.40
2018-12-27T01:39:55.855Z,23.20
2018-12-27T01:42:23.778Z,22.97
2018-12-27T01:44:51.771Z,26.27
2018-12-27T01:47:19.702Z,24.37
2018-12-27T01:49:48.373Z,26.20
2018-12-27T01:52:16.361Z,21.30
2018-12-27T01:54:44.521Z,26.53
2018-12-27T01:57:11.963Z,21.83
2018-12-27T01:59:39.748Z,23.50
2018-12-27T02:02:07.598Z,25.07
2018-12-27T02:04:35.787Z,25.47
2018-12-27T02:07:03.891Z,23.57
2018-12-27T02:09:32.695Z,25.10
2018-12-27T02:12:00.667Z,22.52
2018-12-27T02:14:28.881Z,25.47
2018-12-27T02:16:57.008Z,20.90
2018-12-27T02:19:24.930Z,23.93
2018-12-27T02:21:52.944Z,25.23
2018-12-27T02:24:21.184Z,24.58
2018-12-27T02:26:49.249Z,25.93
2018-12-27T02:29:17.093Z,26.77
2018-12-27T02:31:45.229Z,24.43
2018-12-27T02:34:13.330Z,25.50
2018-12-27T02:36:40.772Z,25.10
2018-12-27T02:39:08.521Z,23.35
2018-12-27T02:41:36.327Z,21.80
2018-12-27T02:44:04.298Z,22.57
2018-12-27T02:46:32.267Z,24.43
2018-12-27T02:49:01.513Z,23.23
2018-12-27T02:51:31.146Z,25.83
2018-12-27T02:53:59.047Z,23.53
2018-12-27T02:56:27.324Z,23.47
2018-12-27T02:58:55.977Z,23.03
2018-12-27T03:01:24.127Z,22.83
2018-12-27T03:03:51.931Z,26.03
2018-12-27T03:06:20.094Z,22.60
2018-12-27T03:08:48.122Z,23.30
2018-12-27T03:11:15.866Z,23.50
2018-12-27T03:13:44.344Z,24.70
2018-12-27T03:16:12.421Z,27.17
2018-12-27T03:18:40.152Z,24.60
2018-12-27T03:21:08.163Z,22.27
2018-12-27T03:23:36.621Z,25.20
2018-12-27T03:26:04.322Z,25.83
2018-12-27T03:28:32.532Z,27.17
2018-12-27T03:31:00.108Z,23.93
2018-12-27T03:33:28.165Z,24.33
2018-12-27T03:35:57.026Z,23.97
2018-12-27T03:38:25.355Z,23.97
2018-12-27T03:40:54.103Z,23.57
2018-12-27T03:43:22.320Z,22.60
2018-12-27T03:45:50.713Z,27.63
2018-12-27T03:48:18.443Z,24.43
2018-12-27T03:50:47.144Z,24.13
2018-12-27T03:53:16.340Z,23.90
2018-12-27T03:55:44.127Z,23.27
2018-12-27T03:58:12.126Z,26.50
2018-12-27T04:00:39.836Z,21.73
2018-12-27T04:03:07.572Z,27.00
2018-12-27T04:05:36.275Z,23.03
2018-12-27T04:08:04.907Z,24.57
2018-12-27T04:10:32.907Z,22.70
2018-12-27T04:13:01.042Z,23.00
2018-12-27T04:15:29.885Z,25.40
2018-12-27T04:17:57.892Z,22.23
2018-12-27T04:20:25.321Z,24.73
2018-12-27T04:22:53.088Z,25.00
2018-12-27T04:25:21.084Z,23.17
2018-12-27T04:27:48.568Z,23.23
2018-12-27T04:30:16.612Z,31.47
2018-12-27T04:32:44.650Z,24.20
2018-12-27T04:35:12.704Z,27.20
2018-12-27T04:37:41.189Z,23.57
2018-12-27T04:40:09.227Z,25.53
2018-12-27T04:42:37.603Z,21.20
2018-12-27T04:45:05.563Z,25.23
2018-12-27T04:47:34.216Z,23.73
2018-12-27T04:50:01.931Z,22.40
2018-12-27T04:52:30.094Z,28.17
2018-12-27T04:54:58.250Z,23.53
2018-12-27T04:57:26.279Z,23.37
2018-12-27T04:59:56.103Z,25.33
2018-12-27T05:02:24.313Z,25.33
2018-12-27T05:04:52.221Z,24.50
2018-12-27T05:07:20.653Z,26.97
2018-12-27T05:09:48.721Z,28.17
2018-12-27T05:12:16.879Z,25.33
2018-12-27T05:14:44.967Z,23.50
2018-12-27T05:17:13.014Z,22.77
2018-12-27T05:19:41.044Z,23.17
2018-12-27T05:22:09.106Z,21.23
2018-12-27T05:24:37.064Z,20.73
2018-12-27T05:27:04.770Z,25.07
2018-12-27T05:29:32.864Z,22.17
2018-12-27T05:32:00.951Z,21.48
2018-12-27T05:34:29.011Z,23.70
2018-12-27T05:36:57.124Z,25.30
2018-12-27T05:39:25.564Z,23.13
2018-12-27T05:41:53.333Z,22.63
2018-12-27T05:44:21.908Z,26.03
2018-12-27T05:46:49.901Z,26.50
2018-12-27T05:49:17.976Z,24.53
2018-12-27T05:51:46.433Z,25.10
2018-12-27T05:54:16.080Z,23.10
2018-12-27T05:56:46.992Z,24.23
2018-12-27T05:59:15.504Z,22.83
2018-12-27T06:01:43.544Z,23.57
2018-12-27T06:04:11.591Z,22.10
2018-12-27T06:06:39.997Z,24.07
2018-12-27T06:09:08.043Z,23.27
2018-12-27T06:11:36.091Z,26.43
2018-12-27T06:14:04.026Z,28.45
2018-12-27T06:16:31.720Z,24.60
2018-12-27T06:19:00.193Z,23.20
2018-12-27T06:21:28.382Z,19.80
2018-12-27T06:23:56.233Z,22.87
2018-12-27T06:26:24.266Z,26.10
2018-12-27T06:28:52.107Z,24.53
2018-12-27T06:31:20.257Z,19.67
2018-12-27T06:33:48.363Z,23.37
2018-12-27T06:36:16.907Z,24.00
2018-12-27T06:38:44.338Z,22.90
2018-12-27T06:41:12.153Z,23.00
2018-12-27T06:43:40.195Z,23.17
2018-12-27T06:46:08.845Z,23.27
2018-12-27T06:48:36.814Z,24.10
2018-12-27T06:51:04.876Z,21.57
2018-12-27T06:53:32.613Z,23.63
2018-12-27T06:56:00.338Z,20.70
2018-12-27T06:58:28.320Z,21.57
2018-12-27T07:00:56.376Z,22.33
2018-12-27T07:03:24.402Z,22.10
2018-12-27T07:05:52.576Z,23.37
2018-12-27T07:08:20.557Z,23.42
2018-12-27T07:10:48.557Z,22.97
2018-12-27T07:13:17.104Z,24.30
2018-12-27T07:15:45.845Z,24.60
2018-12-27T07:18:13.940Z,21.17
2018-12-27T07:20:42.242Z,23.50
2018-12-27T07:23:10.305Z,24.17
2018-12-27T07:25:38.166Z,22.77
2018-12-27T07:28:06.346Z,24.57
2018-12-27T07:30:34.419Z,22.43
2018-12-27T07:33:04.189Z,22.67
2018-12-27T07:35:30.470Z,23.03
2018-12-27T07:37:58.323Z,21.90
2018-12-27T07:40:26.261Z,22.13
2018-12-27T07:42:54.550Z,22.00
2018-12-27T07:45:22.229Z,23.43
2018-12-27T07:47:50.328Z,21.43
2018-12-27T07:50:18.587Z,26.45
2018-12-27T07:52:46.548Z,24.43
2018-12-27T07:55:14.618Z,26.57
2018-12-27T07:57:42.885Z,20.60
2018-12-27T08:00:10.957Z,21.03
2018-12-27T08:02:39.132Z,23.73
2018-12-27T08:05:06.848Z,22.37
2018-12-27T08:07:34.960Z,21.97
2018-12-27T08:10:02.418Z,20.65
2018-12-27T08:12:30.726Z,21.30
2018-12-27T08:14:58.440Z,21.83
2018-12-27T08:17:26.489Z,20.13
2018-12-27T08:19:54.461Z,22.00
2018-12-27T08:22:22.573Z,21.47
2018-12-27T08:24:50.666Z,22.83
2018-12-27T08:27:18.642Z,19.93
2018-12-27T08:29:46.669Z,21.87
2018-12-27T08:32:14.471Z,22.57
2018-12-27T08:34:42.507Z,22.07
2018-12-27T08:37:10.579Z,22.63
2018-12-27T08:39:38.681Z,23.47
2018-12-27T08:42:06.963Z,19.60
2018-12-27T08:44:35.248Z,21.00
2018-12-27T08:47:03.258Z,21.33
2018-12-27T08:49:31.382Z,21.10
2018-12-27T08:51:59.350Z,19.53
2018-12-27T08:54:28.175Z,18.53
2018-12-27T08:56:56.239Z,23.67
2018-12-27T08:59:23.690Z,20.17
2018-12-27T09:01:51.694Z,20.20
2018-12-27T09:04:20.319Z,21.05
2018-12-27T09:07:31.645Z,21.07
2018-12-27T09:09:59.146Z,21.47
2018-12-27T09:12:27.386Z,20.20
2018-12-27T09:14:55.175Z,25.03
2018-12-27T09:17:23.318Z,20.67
2018-12-27T09:19:51.002Z,18.58
2018-12-27T09:22:18.947Z,21.15
2018-12-27T09:24:47.069Z,18.53
2018-12-27T09:27:15.114Z,21.25
2018-12-27T09:29:43.159Z,20.77
2018-12-27T09:32:11.460Z,18.75
2018-12-27T09:34:39.413Z,20.48
2018-12-27T09:37:07.522Z,19.60
2018-12-27T09:39:35.411Z,23.12
2018-12-27T09:42:03.400Z,19.58
2018-12-27T09:44:31.506Z,21.42
2018-12-27T09:46:59.980Z,17.67
2018-12-27T09:49:28.079Z,22.60
2018-12-27T09:52:02.047Z,19.02
2018-12-27T09:54:24.408Z,21.50
2018-12-27T09:56:52.491Z,22.20
2018-12-27T09:59:20.494Z,19.33
2018-12-27T10:01:49.324Z,23.15
2018-12-27T10:04:17.262Z,20.60
2018-12-27T10:06:45.097Z,21.98
2018-12-27T10:09:13.108Z,18.12
2018-12-27T10:11:41.230Z,22.52
2018-12-27T10:14:08.980Z,22.60
2018-12-27T10:16:37.398Z,19.55
2018-12-27T10:19:05.322Z,21.42
2018-12-27T10:21:33.390Z,20.73
2018-12-27T10:24:01.214Z,23.10
2018-12-27T10:26:29.354Z,22.33
2018-12-27T10:28:57.922Z,22.35
2018-12-27T10:31:26.010Z,19.95
2018-12-27T10:33:54.084Z,23.40
2018-12-27T10:36:21.720Z,22.83
2018-12-27T10:38:50.023Z,21.73
2018-12-27T10:41:18.128Z,20.15
2018-12-27T10:43:46.280Z,19.42
2018-12-27T10:46:14.468Z,21.25
2018-12-27T10:48:42.479Z,22.75
2018-12-27T10:51:10.422Z,21.67
2018-12-27T10:53:38.777Z,20.25
2018-12-27T10:56:06.789Z,22.50
2018-12-27T10:58:34.883Z,20.83
2018-12-27T11:01:02.926Z,19.17
2018-12-27T11:03:30.930Z,21.30
2018-12-27T11:05:58.522Z,17.50
2018-12-27T11:08:26.531Z,19.90
2018-12-27T11:10:54.512Z,17.98
2018-12-27T11:13:21.960Z,20.62
2018-12-27T11:15:49.948Z,19.15
2018-12-27T11:18:17.684Z,17.02
2018-12-27T11:20:45.787Z,18.80
2018-12-27T11:23:14.280Z,20.80
2018-12-27T11:25:42.374Z,18.45
2018-12-27T11:28:10.893Z,18.70
2018-12-27T11:30:38.944Z,17.42
2018-12-27T11:33:07.059Z,17.00
2018-12-27T11:35:35.731Z,18.55
2018-12-27T11:38:04.328Z,15.30
2018-12-27T11:40:32.288Z,19.00
2018-12-27T11:42:59.745Z,19.75
2018-12-27T11:45:27.875Z,16.80
2018-12-27T11:47:56.109Z,20.73
2018-12-27T11:50:23.932Z,17.62
2018-12-27T11:52:52.242Z,19.12
2018-12-27T11:55:20.810Z,17.85
2018-12-27T11:57:48.813Z,17.05
2018-12-27T12:00:16.861Z,18.10
2018-12-27T12:02:44.962Z,18.42
2018-12-27T12:05:12.845Z,16.80
2018-12-27T12:07:41.107Z,16.70
2018-12-27T12:10:08.299Z,16.87
2018-12-27T12:12:36.106Z,16.30
2018-12-27T12:15:04.756Z,18.75
2018-12-27T12:17:32.865Z,16.65
2018-12-27T12:20:00.655Z,17.87
2018-12-27T12:22:28.597Z,16.17
2018-12-27T12:24:56.607Z,17.08
2018-12-27T12:27:24.833Z,18.87
2018-12-27T12:29:53.222Z,16.85
2018-12-27T12:32:21.819Z,17.83
2018-12-27T12:34:49.976Z,15.02
2018-12-27T12:37:18.463Z,19.12
2018-12-27T12:39:46.664Z,16.33
2018-12-27T12:42:15.732Z,16.15
2018-12-27T12:44:42.739Z,15.02
2018-12-27T12:47:10.593Z,17.05
2018-12-27T12:49:39.095Z,16.10
2018-12-27T12:52:07.519Z,16.23
2018-12-27T12:54:35.586Z,16.75
2018-12-27T12:57:03.948Z,18.58
2018-12-27T12:59:32.068Z,18.90
2018-12-27T13:02:00.032Z,16.05
2018-12-27T13:04:27.763Z,16.12
2018-12-27T13:06:56.154Z,18.60
2018-12-27T13:09:23.783Z,16.65
2018-12-27T13:11:51.438Z,16.77
2018-12-27T13:14:20.117Z,15.27
2018-12-27T13:16:48.088Z,15.57
2018-12-27T13:19:16.091Z,16.50
2018-12-27T13:21:43.865Z,17.67
2018-12-27T13:24:11.621Z,17.60
2018-12-27T13:26:39.601Z,17.12
2018-12-27T13:29:07.698Z,18.27
2018-12-27T13:31:35.623Z,14.93
2018-12-27T13:34:03.605Z,18.08
2018-12-27T13:36:31.570Z,18.95
2018-12-27T13:38:59.277Z,15.95
2018-12-27T13:41:26.744Z,17.75
2018-12-27T13:43:54.664Z,17.67
2018-12-27T13:46:22.146Z,15.90
2018-12-27T13:48:50.107Z,17.85
2018-12-27T13:51:18.160Z,17.70
2018-12-27T13:53:46.345Z,14.77
2018-12-27T13:56:14.331Z,17.67
2018-12-27T13:58:42.356Z,17.90
2018-12-27T14:01:10.918Z,17.83
2018-12-27T14:03:38.651Z,17.20
2018-12-27T14:06:07.081Z,17.40
2018-12-27T14:08:35.065Z,18.40
2018-12-27T14:11:02.786Z,17.37
2018-12-27T14:13:31.216Z,17.60
2018-12-27T14:15:59.164Z,16.65
2018-12-27T14:18:27.245Z,17.17
2018-12-27T14:20:55.241Z,16.08
2018-12-27T14:23:22.933Z,17.08
2018-12-27T14:25:50.917Z,17.12
2018-12-27T14:28:18.656Z,18.02
2018-12-27T14:30:46.766Z,17.60
2018-12-27T14:33:14.558Z,15.98
2018-12-27T14:35:42.660Z,21.10
2018-12-27T14:38:10.793Z,18.08
2018-12-27T14:40:38.517Z,16.62
2018-12-27T14:43:06.629Z,16.67
2018-12-27T14:45:34.592Z,17.15
2018-12-27T14:48:02.703Z,14.90
2018-12-27T14:50:31.362Z,16.02
2018-12-27T14:52:59.531Z,17.10
2018-12-27T14:55:28.750Z,17.48
2018-12-27T14:57:56.476Z,18.65
2018-12-27T15:00:24.459Z,18.80
2018-12-27T15:02:52.636Z,21.02
2018-12-27T15:05:20.395Z,17.52
2018-12-27T15:07:48.280Z,19.10
2018-12-27T15:10:16.239Z,15.93
2018-12-27T15:12:43.742Z,17.95
2018-12-27T15:15:11.758Z,17.02
2018-12-27T15:17:40.242Z,18.35
2018-12-27T15:20:08.522Z,21.05
2018-12-27T15:22:36.588Z,20.20
2018-12-27T15:25:04.953Z,18.35
2018-12-27T15:27:32.995Z,18.12
2018-12-27T15:30:00.993Z,17.23
2018-12-27T15:32:29.094Z,21.95
2018-12-27T15:34:57.112Z,17.37
2018-12-27T15:37:25.702Z,20.20
2018-12-27T15:39:54.000Z,17.35
2018-12-27T15:42:22.024Z,19.40
2018-12-27T15:44:50.128Z,18.10
2018-12-27T15:47:18.653Z,23.00
2018-12-27T15:49:46.709Z,17.80
2018-12-27T15:52:14.794Z,21.17
2018-12-27T15:54:42.625Z,19.65
2018-12-27T15:57:10.857Z,18.50
2018-12-27T15:59:38.554Z,19.00
2018-12-27T16:02:06.552Z,18.50
2018-12-27T16:04:34.913Z,20.98
2018-12-27T16:07:02.926Z,19.37
2018-12-27T16:09:30.662Z,18.20
2018-12-27T16:11:59.354Z,19.50
2018-12-27T16:14:27.331Z,17.17
2018-12-27T16:16:55.481Z,19.85
2018-12-27T16:19:24.609Z,18.20
2018-12-27T16:21:52.568Z,17.92
2018-12-27T16:24:20.799Z,18.90
2018-12-27T16:26:48.809Z,20.40
2018-12-27T16:29:16.597Z,16.45
2018-12-27T16:31:44.599Z,16.00
2018-12-27T16:34:12.506Z,21.10
2018-12-27T16:36:40.678Z,16.77
2018-12-27T16:39:08.380Z,18.33
2018-12-27T16:41:36.698Z,16.45
2018-12-27T16:44:04.656Z,18.67
2018-12-27T16:46:32.619Z,17.55
2018-12-27T16:49:00.743Z,16.65
2018-12-27T16:51:28.734Z,17.43
2018-12-27T16:53:56.874Z,16.17
2018-12-27T16:56:25.093Z,19.10
2018-12-27T16:58:53.547Z,17.03
2018-12-27T17:01:21.715Z,16.50
2018-12-27T17:03:49.754Z,18.60
2018-12-27T17:06:17.862Z,14.63
2018-12-27T17:08:46.416Z,18.15
2018-12-27T17:11:14.879Z,19.37
2018-12-27T17:13:42.906Z,16.03
2018-12-27T17:16:10.940Z,17.10
2018-12-27T17:18:39.152Z,15.13
2018-12-27T17:21:07.362Z,20.93
2018-12-27T17:23:35.471Z,19.00
2018-12-27T17:26:03.512Z,23.15
2018-12-27T17:28:31.491Z,24.60
2018-12-27T17:30:59.189Z,24.27
2018-12-27T17:33:27.090Z,20.90
2018-12-27T17:35:54.837Z,22.63
2018-12-27T17:38:22.837Z,20.63
2018-12-27T17:40:50.905Z,21.37
2018-12-27T17:43:18.909Z,16.97
2018-12-27T17:45:47.499Z,17.33
2018-12-27T17:48:15.856Z,20.67
2018-12-27T17:50:43.962Z,19.33
2018-12-27T17:53:12.011Z,22.35
2018-12-27T17:55:40.197Z,22.15
2018-12-27T17:58:08.240Z,20.13
2018-12-27T18:00:37.143Z,21.03
2018-12-27T18:03:04.917Z,20.37
2018-12-27T18:05:32.953Z,19.70
2018-12-27T18:08:01.633Z,21.60
2018-12-27T18:10:30.029Z,19.90
2018-12-27T18:12:57.785Z,21.60
2018-12-27T18:15:25.490Z,21.90
2018-12-27T18:17:53.757Z,21.15
2018-12-27T18:20:22.133Z,18.90
2018-12-27T18:22:49.996Z,22.62
2018-12-27T18:25:18.367Z,29.27
2018-12-27T18:27:46.952Z,30.65
2018-12-27T18:30:15.012Z,29.42
2018-12-27T18:32:43.240Z,25.83
2018-12-27T18:35:11.214Z,22.47
2018-12-27T18:37:39.357Z,22.50
2018-12-27T18:40:07.109Z,19.02
2018-12-27T18:42:35.320Z,26.00
2018-12-27T18:45:03.049Z,22.33
2018-12-27T18:47:31.087Z,20.92
2018-12-27T18:49:59.335Z,20.35
2018-12-27T18:52:27.424Z,18.25
2018-12-27T18:54:55.434Z,20.33
2018-12-27T18:57:23.155Z,24.03
2018-12-27T18:59:51.362Z,22.53
2018-12-27T19:02:19.777Z,26.37
2018-12-27T19:04:47.830Z,22.53
2018-12-27T19:07:15.915Z,21.45
2018-12-27T19:09:43.951Z,23.20
2018-12-27T19:12:29.964Z,19.60
2018-12-27T19:15:01.196Z,17.52
2018-12-27T19:17:32.532Z,18.50
2018-12-27T19:20:00.543Z,17.70
2018-12-27T19:22:32.267Z,21.07
2018-12-27T19:25:00.362Z,19.23
2018-12-27T19:27:28.440Z,20.52
2018-12-27T19:29:56.600Z,20.67
2018-12-27T19:32:24.463Z,23.35
2018-12-27T19:34:52.652Z,23.75
2018-12-27T19:37:20.593Z,18.05
2018-12-27T19:39:48.315Z,20.62
2018-12-27T19:42:16.269Z,21.33
2018-12-27T19:44:44.760Z,19.17
2018-12-27T19:47:12.688Z,19.60
2018-12-27T19:49:40.434Z,17.98
2018-12-27T19:52:08.243Z,21.80
2018-12-27T19:54:36.047Z,18.48
2018-12-27T19:57:04.077Z,18.17
2018-12-27T19:59:31.895Z,18.30
2018-12-27T20:01:59.871Z,20.60
2018-12-27T20:04:28.318Z,19.57
2018-12-27T20:06:56.417Z,18.97
2018-12-27T20:09:24.387Z,20.90
2018-12-27T20:11:52.640Z,17.83
2018-12-27T20:14:21.771Z,17.23
2018-12-27T20:16:49.774Z,18.47
2018-12-27T20:19:17.500Z,17.37
2018-12-27T20:21:45.494Z,18.00
2018-12-27T20:24:13.330Z,19.83
2018-12-27T20:26:41.332Z,20.60
2018-12-27T20:29:09.271Z,16.50
2018-12-27T20:31:37.227Z,18.35
2018-12-27T20:34:05.249Z,21.23
2018-12-27T20:36:33.284Z,19.70
2018-12-27T20:39:01.405Z,17.08
2018-12-27T20:41:29.155Z,20.17
2018-12-27T20:43:58.223Z,19.83
2018-12-27T20:46:25.972Z,17.25
2018-12-27T20:48:54.896Z,18.45
2018-12-27T20:51:23.682Z,19.90
2018-12-27T20:53:51.634Z,15.80
2018-12-27T20:56:19.711Z,16.33
2018-12-27T20:58:47.469Z,21.52
2018-12-27T21:01:15.196Z,19.97
2018-12-27T21:03:43.579Z,15.73
2018-12-27T21:06:11.935Z,20.73
2018-12-27T21:08:39.363Z,16.57
2018-12-27T21:11:06.827Z,17.70
2018-12-27T21:13:35.156Z,16.00
2018-12-27T21:16:03.175Z,16.43
2018-12-27T21:18:30.919Z,23.27
2018-12-27T21:20:59.276Z,21.67
2018-12-27T21:23:27.247Z,18.97
2018-12-27T21:25:55.374Z,19.67
2018-12-27T21:28:23.822Z,17.95
2018-12-27T21:30:52.078Z,18.83
2018-12-27T21:33:20.168Z,21.13
2018-12-27T21:35:48.714Z,23.23
2018-12-27T21:38:21.266Z,23.62
2018-12-27T21:40:44.701Z,23.27
2018-12-27T21:43:12.714Z,25.33
2018-12-27T21:45:40.689Z,21.53
2018-12-27T21:48:08.700Z,24.83
2018-12-27T21:50:37.169Z,22.00
2018-12-27T21:53:06.329Z,23.52
2018-12-27T21:55:34.234Z,19.00
2018-12-27T21:58:02.030Z,16.80
2018-12-27T22:00:30.173Z,16.60
2018-12-27T22:02:57.970Z,18.90
2018-12-27T22:05:26.019Z,21.05
2018-12-27T22:07:53.888Z,24.80
2018-12-27T22:10:21.872Z,23.92
2018-12-27T22:12:50.189Z,21.85
2018-12-27T22:15:17.663Z,19.23
2018-12-27T22:17:45.396Z,24.23
2018-12-27T22:20:13.834Z,21.57
2018-12-27T22:22:42.406Z,26.60
2018-12-27T22:25:10.958Z,27.10
2018-12-27T22:27:38.946Z,25.33
2018-12-27T22:30:07.337Z,25.20
2018-12-27T22:32:35.098Z,25.70
2018-12-27T22:35:03.119Z,27.10
2018-12-27T22:37:31.297Z,21.20
2018-12-27T22:39:58.710Z,25.93
2018-12-27T22:42:26.677Z,22.47
2018-12-27T22:44:54.680Z,23.40
2018-12-27T22:47:22.716Z,25.80
2018-12-27T22:49:50.833Z,27.30
2018-12-27T22:52:18.548Z,27.50
2018-12-27T22:54:46.252Z,25.90
2018-12-27T22:57:14.780Z,25.87
2018-12-27T22:59:42.850Z,23.33
2018-12-27T23:02:10.721Z,22.30
2018-12-27T23:04:38.712Z,26.23
2018-12-27T23:07:07.267Z,25.73
2018-12-27T23:09:35.410Z,28.60
2018-12-27T23:12:03.436Z,26.93
2018-12-27T23:14:31.173Z,25.07
2018-12-27T23:16:59.147Z,25.43
2018-12-27T23:19:27.199Z,21.40
2018-12-27T23:21:55.221Z,23.20
2018-12-27T23:24:22.959Z,22.77
2018-12-27T23:26:50.975Z,26.70
2018-12-27T23:29:19.033Z,23.10
2018-12-27T23:31:47.041Z,25.33
2018-12-27T23:34:15.122Z,22.50
2018-12-27T23:36:43.200Z,27.55
2018-12-27T23:39:11.276Z,25.23
2018-12-27T23:41:40.079Z,24.57
2018-12-27T23:44:07.816Z,24.47
2018-12-27T23:46:35.572Z,24.83
2018-12-27T23:49:03.988Z,24.63
2018-12-27T23:51:32.503Z,26.43
2018-12-27T23:54:01.115Z,26.67
2018-12-27T23:56:29.292Z,32.87
2018-12-27T23:58:57.355Z,23.03
